createdAt,value
2022-09-11T00:00:19.482Z,11.08
2022-09-11T00:01:21.755Z,11.09
2022-09-11T00:02:23.736Z,11.13
2022-09-11T00:03:25.927Z,11.13
2022-09-11T00:04:27.755Z,11.16
2022-09-11T00:05:29.684Z,11.16
2022-09-11T00:06:32.279Z,11.18
2022-09-11T00:07:34.083Z,11.20
2022-09-11T00:08:36.862Z,11.20
2022-09-11T00:09:38.792Z,11.22
2022-09-11T00:10:41.440Z,11.26
2022-09-11T00:11:43.423Z,11.28
2022-09-11T00:12:45.249Z,11.32
2022-09-11T00:13:48.410Z,11.32
2022-09-11T00:14:50.195Z,11.33
2022-09-11T00:15:52.322Z,11.38
2022-09-11T00:16:54.305Z,11.39
2022-09-11T00:17:56.744Z,11.45
2022-09-11T00:18:59.645Z,11.50
2022-09-11T00:20:01.998Z,11.54
2022-09-11T00:21:04.235Z,11.55
2022-09-11T00:22:06.326Z,11.63
2022-09-11T00:23:08.092Z,11.71
2022-09-11T00:24:09.921Z,11.72
2022-09-11T00:25:11.798Z,11.80
2022-09-11T00:26:14.236Z,11.83
2022-09-11T00:27:16.071Z,11.88
2022-09-11T00:28:19.793Z,11.93
2022-09-11T00:29:21.952Z,11.91
2022-09-11T00:30:23.757Z,11.97
2022-09-11T00:31:26.838Z,12.00
2022-09-11T00:32:28.866Z,11.98
2022-09-11T00:33:31.189Z,11.99
2022-09-11T00:34:33.065Z,11.99
2022-09-11T00:35:35.046Z,12.02
2022-09-11T00:36:37.343Z,11.99
2022-09-11T00:37:39.264Z,11.99
2022-09-11T00:38:41.074Z,11.85
2022-09-11T00:39:42.947Z,11.94
2022-09-11T00:40:45.614Z,11.93
2022-09-11T00:41:47.503Z,11.90
2022-09-11T00:42:52.772Z,11.93
2022-09-11T00:43:59.471Z,11.93
2022-09-11T00:45:03.203Z,11.91
2022-09-11T00:46:05.505Z,11.91
2022-09-11T00:47:08.446Z,11.90
2022-09-11T00:48:12.285Z,11.92
2022-09-11T00:49:25.463Z,11.91
2022-09-11T00:50:28.985Z,11.91
2022-09-11T00:51:32.814Z,11.90
2022-09-11T00:52:36.541Z,11.90
2022-09-11T00:53:38.557Z,11.90
2022-09-11T00:54:42.198Z,11.89
2022-09-11T00:55:45.981Z,11.89
2022-09-11T00:56:48.790Z,11.91
2022-09-11T00:58:01.520Z,11.91
2022-09-11T00:59:04.055Z,11.91
2022-09-11T01:00:07.064Z,11.90
2022-09-11T01:01:09.376Z,11.90
2022-09-11T01:02:13.312Z,11.90
2022-09-11T01:03:18.257Z,11.90
2022-09-11T01:04:20.953Z,11.93
2022-09-11T01:05:23.550Z,11.92
2022-09-11T01:06:25.628Z,11.92
2022-09-11T01:07:28.593Z,11.93
2022-09-11T01:08:30.620Z,11.95
2022-09-11T01:09:32.910Z,12.02
2022-09-11T01:10:53.804Z,11.98
2022-09-11T01:12:00.523Z,12.02
2022-09-11T01:13:07.005Z,12.01
2022-09-11T01:14:10.681Z,12.03
2022-09-11T01:15:17.555Z,12.03
2022-09-11T01:16:21.508Z,12.03
2022-09-11T01:17:28.516Z,12.02
2022-09-11T01:18:32.336Z,12.09
2022-09-11T01:19:52.923Z,12.10
2022-09-11T01:21:13.250Z,12.06
2022-09-11T01:22:29.439Z,12.08
2022-09-11T01:23:33.325Z,12.09
2022-09-11T01:24:53.812Z,12.10
2022-09-11T01:26:00.452Z,12.12
2022-09-11T01:27:07.367Z,12.13
2022-09-11T01:28:11.341Z,12.13
2022-09-11T01:29:27.507Z,12.15
2022-09-11T01:30:37.206Z,12.14
2022-09-11T01:31:40.923Z,12.13
2022-09-11T01:32:44.746Z,12.13
2022-09-11T01:33:51.515Z,12.10
2022-09-11T01:34:55.343Z,12.12
2022-09-11T01:36:05.199Z,12.10
2022-09-11T01:37:08.917Z,12.12
2022-09-11T01:38:15.966Z,12.12
2022-09-11T01:39:19.683Z,12.12
2022-09-11T01:40:23.345Z,12.07
2022-09-11T01:41:30.318Z,12.09
2022-09-11T01:42:34.042Z,12.11
2022-09-11T01:43:37.940Z,12.08
2022-09-11T01:44:47.870Z,12.12
2022-09-11T01:45:51.753Z,12.12
2022-09-11T01:46:54.120Z,12.10
2022-09-11T01:47:57.771Z,12.14
2022-09-11T01:49:04.424Z,12.16
2022-09-11T01:50:08.317Z,12.15
2022-09-11T01:51:12.190Z,12.07
2022-09-11T01:52:19.178Z,12.07
2022-09-11T01:53:22.419Z,12.08
2022-09-11T01:54:26.170Z,12.07
2022-09-11T01:55:30.079Z,12.06
2022-09-11T01:56:33.810Z,12.04
2022-09-11T01:57:43.807Z,12.06
2022-09-11T01:58:46.561Z,12.05
2022-09-11T01:59:50.413Z,12.06
2022-09-11T02:00:54.179Z,12.05
2022-09-11T02:02:01.259Z,12.06
2022-09-11T02:03:17.674Z,12.08
2022-09-11T02:04:24.335Z,12.08
2022-09-11T02:05:31.099Z,12.08
2022-09-11T02:06:37.746Z,12.08
2022-09-11T02:07:41.623Z,12.04
2022-09-11T02:08:45.353Z,12.07
2022-09-11T02:09:52.425Z,12.06
2022-09-11T02:10:56.428Z,12.05
2022-09-11T02:12:00.139Z,12.06
2022-09-11T02:13:03.874Z,12.07
2022-09-11T02:14:10.784Z,12.06
2022-09-11T02:15:13.218Z,12.05
2022-09-11T02:16:23.135Z,12.05
2022-09-11T02:17:36.208Z,12.09
2022-09-11T02:18:42.660Z,12.08
2022-09-11T02:19:44.635Z,12.09
2022-09-11T02:20:46.616Z,12.09
2022-09-11T02:21:49.130Z,12.07
2022-09-11T02:22:50.987Z,12.05
2022-09-11T02:23:53.675Z,12.08
2022-09-11T02:24:55.674Z,12.08
2022-09-11T02:25:57.602Z,12.09
2022-09-11T02:27:07.503Z,12.10
2022-09-11T02:28:09.498Z,12.11
2022-09-11T02:29:12.281Z,12.12
2022-09-11T02:30:14.313Z,12.12
2022-09-11T02:31:16.744Z,12.13
2022-09-11T02:32:19.409Z,12.12
2022-09-11T02:33:28.987Z,12.12
2022-09-11T02:34:32.734Z,12.14
2022-09-11T02:35:39.320Z,12.14
2022-09-11T02:36:49.370Z,12.13
2022-09-11T02:37:56.131Z,12.14
2022-09-11T02:39:16.512Z,12.12
2022-09-11T02:40:20.295Z,12.09
2022-09-11T02:41:24.182Z,12.15
2022-09-11T02:42:28.106Z,12.15
2022-09-11T02:43:37.874Z,12.17
2022-09-11T02:44:41.554Z,12.15
2022-09-11T02:45:51.132Z,12.15
2022-09-11T02:47:00.906Z,12.16
2022-09-11T02:48:16.714Z,12.17
2022-09-11T02:49:23.575Z,12.18
2022-09-11T02:50:39.300Z,12.16
2022-09-11T02:51:49.030Z,12.15
2022-09-11T02:52:55.727Z,12.15
2022-09-11T02:54:02.767Z,12.17
2022-09-11T02:55:06.475Z,12.16
2022-09-11T02:56:12.875Z,12.18
2022-09-11T02:57:19.186Z,12.18
2022-09-11T02:58:26.194Z,12.18
2022-09-11T02:59:36.303Z,12.18
2022-09-11T03:00:38.953Z,12.16
2022-09-11T03:01:51.374Z,12.19
2022-09-11T03:02:53.668Z,12.19
2022-09-11T03:03:55.467Z,12.19
2022-09-11T03:04:57.775Z,12.22
2022-09-11T03:06:00.125Z,12.17
2022-09-11T03:07:01.919Z,12.18
2022-09-11T03:08:03.939Z,12.22
2022-09-11T03:09:05.920Z,12.21
2022-09-11T03:10:08.663Z,12.20
2022-09-11T03:11:10.771Z,12.18
2022-09-11T03:12:12.578Z,12.22
2022-09-11T03:13:14.592Z,12.22
2022-09-11T03:14:16.648Z,12.22
2022-09-11T03:15:18.477Z,12.19
2022-09-11T03:16:20.437Z,12.19
2022-09-11T03:17:23.000Z,12.22
2022-09-11T03:18:24.895Z,12.20
2022-09-11T03:19:27.572Z,12.19
2022-09-11T03:20:29.605Z,12.26
2022-09-11T03:21:31.842Z,12.26
2022-09-11T03:22:33.767Z,12.23
2022-09-11T03:23:35.752Z,12.25
2022-09-11T03:24:37.737Z,12.24
2022-09-11T03:25:40.306Z,12.25
2022-09-11T03:26:42.310Z,12.18
2022-09-11T03:27:44.237Z,12.24
2022-09-11T03:28:46.704Z,12.23
2022-09-11T03:29:48.884Z,12.21
2022-09-11T03:30:51.214Z,12.21
2022-09-11T03:31:53.161Z,12.19
2022-09-11T03:32:55.191Z,12.10
2022-09-11T03:33:57.001Z,12.19
2022-09-11T03:34:58.874Z,12.22
2022-09-11T03:36:01.061Z,12.22
2022-09-11T03:37:03.020Z,12.20
2022-09-11T03:38:05.043Z,12.20
2022-09-11T03:39:06.926Z,12.22
2022-09-11T03:40:09.066Z,12.22
2022-09-11T03:41:11.037Z,12.22
2022-09-11T03:42:13.068Z,12.24
2022-09-11T03:43:15.146Z,12.23
2022-09-11T03:44:19.291Z,12.23
2022-09-11T03:45:21.323Z,12.24
2022-09-11T03:46:23.600Z,12.23
2022-09-11T03:47:25.405Z,12.22
2022-09-11T03:48:27.409Z,12.22
2022-09-11T03:49:29.285Z,12.23
2022-09-11T03:50:31.347Z,12.28
2022-09-11T03:51:33.474Z,12.23
2022-09-11T03:52:35.684Z,12.25
2022-09-11T03:53:37.724Z,12.28
2022-09-11T03:54:39.802Z,12.26
2022-09-11T03:55:42.203Z,12.29
2022-09-11T03:56:44.123Z,12.25
2022-09-11T03:57:46.056Z,12.24
2022-09-11T03:58:47.908Z,12.28
2022-09-11T03:59:49.810Z,12.28
2022-09-11T04:00:51.617Z,12.28
2022-09-11T04:01:53.531Z,12.29
2022-09-11T04:02:55.508Z,12.30
2022-09-11T04:03:57.528Z,12.32
2022-09-11T04:04:59.365Z,12.30
2022-09-11T04:06:02.388Z,12.33
2022-09-11T04:07:04.351Z,12.30
2022-09-11T04:08:06.379Z,12.29
2022-09-11T04:09:08.255Z,12.32
2022-09-11T04:10:10.358Z,12.33
2022-09-11T04:11:12.319Z,12.32
2022-09-11T04:12:14.508Z,12.32
2022-09-11T04:13:16.330Z,12.30
2022-09-11T04:14:18.376Z,12.31
2022-09-11T04:15:20.346Z,12.31
2022-09-11T04:16:22.477Z,12.29
2022-09-11T04:17:24.385Z,12.26
2022-09-11T04:18:26.397Z,12.25
2022-09-11T04:19:28.275Z,12.25
2022-09-11T04:20:32.108Z,12.29
2022-09-11T04:21:34.042Z,12.31
2022-09-11T04:22:36.069Z,12.31
2022-09-11T04:23:38.659Z,12.35
2022-09-11T04:24:40.722Z,12.33
2022-09-11T04:25:42.733Z,12.32
2022-09-11T04:26:46.054Z,12.35
2022-09-11T04:27:47.979Z,12.36
2022-09-11T04:28:50.116Z,12.37
2022-09-11T04:29:52.049Z,12.38
2022-09-11T04:30:54.650Z,12.37
2022-09-11T04:31:56.727Z,12.35
2022-09-11T04:32:58.763Z,12.37
2022-09-11T04:34:00.955Z,12.43
2022-09-11T04:35:02.904Z,12.46
2022-09-11T04:36:06.044Z,12.36
2022-09-11T04:37:07.942Z,12.39
2022-09-11T04:38:09.746Z,12.39
2022-09-11T04:39:11.894Z,12.34
2022-09-11T04:40:13.945Z,12.39
2022-09-11T04:41:16.410Z,12.36
2022-09-11T04:42:20.615Z,12.31
2022-09-11T04:43:22.538Z,12.24
2022-09-11T04:44:24.373Z,12.24
2022-09-11T04:45:26.698Z,12.24
2022-09-11T04:46:29.099Z,12.17
2022-09-11T04:47:30.924Z,12.24
2022-09-11T04:48:33.192Z,12.28
2022-09-11T04:49:35.007Z,12.30
2022-09-11T04:50:36.899Z,12.22
2022-09-11T04:51:39.176Z,12.15
2022-09-11T04:52:41.163Z,12.19
2022-09-11T04:53:43.311Z,12.24
2022-09-11T04:54:45.381Z,12.23
2022-09-11T04:55:47.358Z,12.22
2022-09-11T04:56:49.390Z,12.18
2022-09-11T04:57:52.156Z,12.14
2022-09-11T04:58:55.878Z,12.18
2022-09-11T04:59:57.911Z,12.19
2022-09-11T05:01:00.577Z,12.05
2022-09-11T05:02:02.938Z,12.04
2022-09-11T05:03:04.932Z,12.06
2022-09-11T05:04:06.807Z,12.05
2022-09-11T05:05:09.047Z,12.09
2022-09-11T05:06:11.899Z,12.09
2022-09-11T05:07:13.874Z,12.14
2022-09-11T05:08:15.798Z,12.14
2022-09-11T05:09:17.798Z,12.08
2022-09-11T05:10:19.925Z,12.10
2022-09-11T05:11:21.802Z,12.10
2022-09-11T05:12:23.794Z,12.08
2022-09-11T05:13:26.898Z,11.99
2022-09-11T05:14:28.727Z,12.02
2022-09-11T05:15:30.777Z,12.07
2022-09-11T05:16:32.888Z,12.09
2022-09-11T05:17:35.025Z,12.01
2022-09-11T05:18:38.201Z,12.08
2022-09-11T05:19:40.034Z,12.00
2022-09-11T05:20:42.040Z,12.01
2022-09-11T05:21:44.335Z,11.99
2022-09-11T05:22:46.339Z,12.01
2022-09-11T05:23:49.115Z,12.06
2022-09-11T05:24:50.964Z,12.05
2022-09-11T05:25:54.927Z,12.03
2022-09-11T05:26:57.115Z,12.05
2022-09-11T05:27:58.944Z,12.00
2022-09-11T05:29:02.378Z,11.97
2022-09-11T05:30:04.803Z,11.95
2022-09-11T05:31:11.253Z,11.97
2022-09-11T05:32:13.090Z,12.01
2022-09-11T05:33:14.910Z,12.06
2022-09-11T05:34:16.936Z,12.08
2022-09-11T05:35:18.934Z,12.07
2022-09-11T05:36:22.268Z,12.07
2022-09-11T05:37:24.219Z,12.08
2022-09-11T05:38:26.537Z,12.06
2022-09-11T05:39:28.803Z,12.02
2022-09-11T05:40:30.642Z,12.05
2022-09-11T05:41:32.654Z,12.08
2022-09-11T05:42:34.590Z,12.08
2022-09-11T05:43:37.549Z,12.07
2022-09-11T05:44:39.429Z,12.12
2022-09-11T05:45:41.633Z,12.15
2022-09-11T05:46:43.807Z,12.16
2022-09-11T05:47:46.307Z,12.18
2022-09-11T05:48:48.235Z,12.22
2022-09-11T05:49:50.062Z,12.17
2022-09-11T05:50:53.089Z,12.17
2022-09-11T05:51:55.061Z,12.09
2022-09-11T05:52:57.052Z,12.15
2022-09-11T05:53:59.022Z,12.17
2022-09-11T05:55:01.264Z,12.18
2022-09-11T05:56:16.719Z,12.15
2022-09-11T05:57:18.735Z,12.08
2022-09-11T05:58:21.082Z,12.09
2022-09-11T05:59:22.911Z,11.96
2022-09-11T06:00:25.155Z,11.94
2022-09-11T06:01:27.924Z,12.03
2022-09-11T06:02:30.145Z,11.97
2022-09-11T06:03:32.067Z,12.01
2022-09-11T06:04:34.104Z,11.98
2022-09-11T06:05:35.938Z,12.01
2022-09-11T06:06:37.906Z,12.02
2022-09-11T06:07:40.096Z,11.95
2022-09-11T06:08:42.284Z,11.87
2022-09-11T06:09:44.163Z,11.85
2022-09-11T06:10:46.042Z,11.89
2022-09-11T06:11:47.906Z,11.83
2022-09-11T06:12:49.910Z,11.89
2022-09-11T06:13:51.933Z,11.77
2022-09-11T06:14:53.858Z,11.78
2022-09-11T06:15:55.993Z,11.81
2022-09-11T06:16:58.081Z,11.87
2022-09-11T06:18:00.266Z,11.90
2022-09-11T06:19:02.189Z,11.90
2022-09-11T06:20:04.908Z,11.93
2022-09-11T06:21:08.642Z,11.94
2022-09-11T06:22:10.463Z,11.96
2022-09-11T06:23:13.129Z,12.00
2022-09-11T06:24:14.985Z,11.91
2022-09-11T06:25:16.714Z,11.92
2022-09-11T06:26:20.393Z,11.78
2022-09-11T06:27:22.333Z,11.83
2022-09-11T06:28:24.198Z,11.92
2022-09-11T06:29:26.233Z,11.90
2022-09-11T06:30:28.438Z,11.84
2022-09-11T06:31:30.278Z,11.93
2022-09-11T06:32:32.404Z,11.89
2022-09-11T06:33:36.149Z,11.89
2022-09-11T06:34:37.954Z,11.93
2022-09-11T06:35:39.834Z,11.85
2022-09-11T06:36:41.644Z,11.89
2022-09-11T06:37:43.641Z,11.98
2022-09-11T06:38:45.723Z,11.97
2022-09-11T06:39:47.864Z,12.03
2022-09-11T06:40:49.902Z,12.02
2022-09-11T06:41:51.906Z,12.07
2022-09-11T06:42:53.813Z,12.07
2022-09-11T06:43:55.790Z,11.91
2022-09-11T06:44:57.611Z,12.00
2022-09-11T06:46:07.396Z,11.88
2022-09-11T06:47:09.147Z,11.78
2022-09-11T06:48:10.952Z,11.72
2022-09-11T06:49:12.783Z,11.79
2022-09-11T06:50:14.814Z,11.80
2022-09-11T06:51:18.025Z,11.78
2022-09-11T06:52:20.006Z,11.80
2022-09-11T06:53:21.835Z,11.85
2022-09-11T06:54:23.835Z,11.92
2022-09-11T06:55:25.663Z,11.83
2022-09-11T06:56:28.558Z,11.79
2022-09-11T06:57:30.501Z,11.81
2022-09-11T06:58:32.841Z,11.75
2022-09-11T06:59:34.614Z,11.76
2022-09-11T07:00:36.572Z,11.86
2022-09-11T07:01:38.779Z,11.94
2022-09-11T07:02:40.767Z,11.98
2022-09-11T07:03:43.636Z,12.03
2022-09-11T07:04:45.664Z,12.06
2022-09-11T07:05:47.634Z,12.00
2022-09-11T07:06:49.536Z,11.96
2022-09-11T07:07:51.727Z,11.93
2022-09-11T07:08:55.653Z,11.97
2022-09-11T07:09:58.395Z,11.95
2022-09-11T07:11:03.148Z,11.92
2022-09-11T07:12:05.224Z,11.87
2022-09-11T07:13:07.154Z,11.90
2022-09-11T07:14:09.081Z,11.88
2022-09-11T07:15:11.369Z,11.88
2022-09-11T07:16:13.371Z,11.95
2022-09-11T07:17:15.397Z,11.85
2022-09-11T07:18:19.933Z,11.84
2022-09-11T07:19:21.932Z,11.90
2022-09-11T07:20:24.271Z,11.92
2022-09-11T07:21:27.228Z,12.01
2022-09-11T07:22:29.414Z,11.96
2022-09-11T07:23:31.922Z,11.88
2022-09-11T07:24:34.146Z,12.00
2022-09-11T07:25:36.748Z,12.06
2022-09-11T07:26:38.723Z,12.10
2022-09-11T07:27:41.112Z,12.03
2022-09-11T07:28:43.093Z,12.05
2022-09-11T07:29:45.075Z,12.00
2022-09-11T07:30:47.163Z,12.09
2022-09-11T07:31:49.343Z,12.17
2022-09-11T07:32:51.838Z,12.20
2022-09-11T07:33:53.607Z,12.16
2022-09-11T07:34:55.544Z,12.24
2022-09-11T07:35:57.366Z,12.26
2022-09-11T07:36:59.147Z,12.33
2022-09-11T07:38:01.208Z,12.42
2022-09-11T07:39:03.268Z,12.49
2022-09-11T07:40:05.837Z,12.57
2022-09-11T07:41:08.099Z,12.51
2022-09-11T07:42:10.119Z,12.52
2022-09-11T07:43:12.364Z,12.54
2022-09-11T07:44:14.298Z,12.54
2022-09-11T07:45:22.076Z,12.62
2022-09-11T07:46:21.565Z,12.51
2022-09-11T07:47:24.203Z,12.53
2022-09-11T07:48:26.319Z,12.47
2022-09-11T07:49:28.449Z,12.50
2022-09-11T07:50:31.188Z,12.37
2022-09-11T07:51:33.505Z,12.39
2022-09-11T07:52:35.498Z,12.54
2022-09-11T07:53:38.418Z,12.29
2022-09-11T07:54:40.659Z,12.46
2022-09-11T07:55:42.442Z,12.68
2022-09-11T07:56:44.393Z,12.81
2022-09-11T07:57:46.337Z,12.77
2022-09-11T07:58:49.416Z,12.84
2022-09-11T07:59:51.880Z,12.97
2022-09-11T08:00:57.942Z,13.00
2022-09-11T08:02:00.144Z,12.97
2022-09-11T08:03:02.468Z,13.05
2022-09-11T08:04:05.836Z,13.12
2022-09-11T08:05:07.928Z,13.08
2022-09-11T08:06:18.956Z,12.99
2022-09-11T08:07:18.818Z,12.98
2022-09-11T08:08:20.712Z,13.07
2022-09-11T08:09:24.425Z,13.08
2022-09-11T08:10:27.900Z,13.12
2022-09-11T08:11:31.111Z,13.13
2022-09-11T08:12:33.299Z,13.18
2022-09-11T08:13:35.217Z,13.05
2022-09-11T08:14:37.109Z,13.14
2022-09-11T08:15:40.839Z,12.91
2022-09-11T08:16:43.942Z,12.91
2022-09-11T08:17:46.029Z,12.92
2022-09-11T08:18:48.248Z,12.88
2022-09-11T08:19:50.092Z,13.03
2022-09-11T08:20:52.228Z,13.11
2022-09-11T08:21:54.156Z,13.09
2022-09-11T08:22:56.652Z,13.18
2022-09-11T08:23:58.580Z,13.24
2022-09-11T08:25:00.510Z,13.27
2022-09-11T08:26:03.843Z,13.27
2022-09-11T08:27:05.600Z,13.00
2022-09-11T08:28:07.790Z,12.89
2022-09-11T08:29:09.849Z,12.99
2022-09-11T08:30:12.158Z,12.81
2022-09-11T08:31:14.174Z,12.95
2022-09-11T08:32:17.147Z,13.09
2022-09-11T08:33:19.039Z,13.17
2022-09-11T08:34:20.944Z,13.21
2022-09-11T08:35:23.000Z,13.28
2022-09-11T08:36:25.674Z,12.93
2022-09-11T08:37:27.724Z,12.93
2022-09-11T08:38:30.381Z,13.08
2022-09-11T08:39:33.216Z,13.09
2022-09-11T08:40:36.296Z,12.95
2022-09-11T08:41:42.977Z,12.88
2022-09-11T08:42:45.937Z,12.81
2022-09-11T08:43:49.737Z,13.02
2022-09-11T08:44:53.423Z,13.03
2022-09-11T08:45:57.168Z,13.04
2022-09-11T08:47:00.917Z,13.08
2022-09-11T08:48:04.714Z,13.12
2022-09-11T08:49:25.334Z,13.04
2022-09-11T08:50:29.251Z,13.06
2022-09-11T08:51:31.408Z,13.21
2022-09-11T08:52:34.875Z,12.94
2022-09-11T08:53:36.752Z,12.98
2022-09-11T08:54:40.076Z,13.07
2022-09-11T08:55:43.749Z,12.99
2022-09-11T08:56:45.836Z,13.25
2022-09-11T08:57:49.667Z,13.35
2022-09-11T08:59:05.548Z,13.33
2022-09-11T09:00:21.216Z,13.46
2022-09-11T09:01:24.966Z,13.26
2022-09-11T09:02:28.868Z,13.24
2022-09-11T09:03:32.722Z,13.40
2022-09-11T09:04:48.424Z,13.37
2022-09-11T09:06:01.455Z,13.33
2022-09-11T09:07:11.310Z,13.37
2022-09-11T09:08:15.327Z,13.29
2022-09-11T09:09:19.191Z,13.37
2022-09-11T09:10:32.712Z,13.37
2022-09-11T09:11:39.207Z,13.41
2022-09-11T09:12:42.931Z,13.43
2022-09-11T09:13:46.866Z,13.41
2022-09-11T09:14:56.610Z,13.46
2022-09-11T09:16:09.759Z,13.52
2022-09-11T09:17:13.776Z,13.53
2022-09-11T09:18:26.699Z,13.53
2022-09-11T09:19:36.562Z,13.40
2022-09-11T09:20:40.375Z,13.17
2022-09-11T09:21:53.574Z,13.05
2022-09-11T09:22:57.608Z,13.15
2022-09-11T09:24:01.531Z,13.19
2022-09-11T09:25:05.203Z,13.19
2022-09-11T09:26:09.040Z,13.14
2022-09-11T09:27:12.817Z,13.18
2022-09-11T09:28:17.783Z,13.04
2022-09-11T09:29:21.196Z,13.16
2022-09-11T09:30:23.435Z,13.20
2022-09-11T09:31:27.203Z,13.29
2022-09-11T09:32:31.042Z,13.36
2022-09-11T09:33:44.356Z,13.36
2022-09-11T09:34:47.543Z,13.25
2022-09-11T09:35:49.735Z,13.28
2022-09-11T09:36:59.416Z,13.33
2022-09-11T09:38:01.245Z,13.41
2022-09-11T09:39:05.022Z,13.45
2022-09-11T09:40:08.596Z,13.32
2022-09-11T09:41:18.711Z,13.29
2022-09-11T09:42:39.288Z,13.39
2022-09-11T09:43:46.152Z,13.44
2022-09-11T09:45:05.494Z,13.48
2022-09-11T09:46:21.610Z,13.48
2022-09-11T09:47:23.867Z,13.53
2022-09-11T09:48:26.704Z,13.50
2022-09-11T09:49:33.207Z,13.47
2022-09-11T09:50:37.037Z,13.44
2022-09-11T09:51:39.445Z,13.42
2022-09-11T09:52:41.448Z,13.39
2022-09-11T09:53:54.137Z,13.44
2022-09-11T09:54:58.021Z,13.47
2022-09-11T09:56:00.516Z,13.47
2022-09-11T09:57:06.929Z,13.39
2022-09-11T09:58:08.998Z,13.33
2022-09-11T09:59:12.890Z,13.39
2022-09-11T10:00:16.565Z,13.44
2022-09-11T10:01:37.308Z,13.47
2022-09-11T10:02:44.158Z,13.32
2022-09-11T10:03:48.092Z,13.50
2022-09-11T10:04:51.932Z,13.55
2022-09-11T10:05:55.292Z,13.55
2022-09-11T10:07:08.438Z,13.57
2022-09-11T10:08:27.719Z,13.61
2022-09-11T10:09:29.801Z,13.56
2022-09-11T10:10:39.393Z,13.61
2022-09-11T10:11:41.531Z,13.60
2022-09-11T10:12:44.699Z,13.65
2022-09-11T10:13:48.372Z,13.58
2022-09-11T10:14:52.530Z,13.58
2022-09-11T10:15:58.941Z,13.57
2022-09-11T10:17:01.661Z,13.58
2022-09-11T10:18:22.356Z,13.66
2022-09-11T10:19:32.351Z,13.62
2022-09-11T10:20:34.434Z,13.58
2022-09-11T10:21:36.889Z,13.56
2022-09-11T10:22:38.965Z,13.62
2022-09-11T10:23:48.758Z,13.65
2022-09-11T10:24:58.462Z,13.70
2022-09-11T10:26:01.177Z,13.69
2022-09-11T10:27:03.289Z,13.75
2022-09-11T10:28:10.348Z,13.75
2022-09-11T10:29:14.519Z,13.82
2022-09-11T10:30:27.597Z,13.80
2022-09-11T10:31:29.747Z,13.88
2022-09-11T10:32:33.387Z,13.87
2022-09-11T10:33:37.236Z,13.84
2022-09-11T10:34:39.743Z,13.88
2022-09-11T10:35:43.479Z,13.93
2022-09-11T10:36:59.252Z,13.95
2022-09-11T10:38:12.082Z,13.97
2022-09-11T10:39:15.840Z,13.70
2022-09-11T10:40:22.226Z,13.86
2022-09-11T10:41:25.116Z,13.83
2022-09-11T10:42:28.477Z,13.91
2022-09-11T10:43:35.818Z,13.83
2022-09-11T10:44:40.851Z,13.91
2022-09-11T10:45:45.167Z,13.91
2022-09-11T10:46:49.557Z,13.89
2022-09-11T10:47:55.504Z,13.87
2022-09-11T10:49:17.811Z,13.91
2022-09-11T10:50:22.139Z,13.93
2022-09-11T10:51:25.788Z,13.95
2022-09-11T10:52:29.199Z,13.89
2022-09-11T10:53:32.985Z,14.01
2022-09-11T10:54:49.353Z,14.01
2022-09-11T10:56:02.329Z,13.88
2022-09-11T10:57:06.143Z,13.88
2022-09-11T10:58:10.012Z,13.89
2022-09-11T10:59:13.718Z,13.56
2022-09-11T11:00:23.514Z,13.58
2022-09-11T11:01:26.126Z,13.77
2022-09-11T11:02:30.146Z,13.84
2022-09-11T11:03:32.335Z,13.86
2022-09-11T11:04:34.119Z,13.88
2022-09-11T11:05:37.941Z,13.90
2022-09-11T11:06:59.983Z,13.87
2022-09-11T11:08:06.862Z,13.85
2022-09-11T11:09:30.994Z,13.80
2022-09-11T11:10:33.040Z,13.79
2022-09-11T11:11:53.532Z,13.86
2022-09-11T11:13:00.082Z,13.86
2022-09-11T11:14:09.825Z,13.58
2022-09-11T11:15:13.950Z,13.71
2022-09-11T11:16:20.770Z,13.80
2022-09-11T11:17:42.826Z,13.81
2022-09-11T11:18:52.377Z,13.86
2022-09-11T11:19:56.105Z,13.92
2022-09-11T11:20:59.886Z,13.92
2022-09-11T11:22:03.872Z,13.92
2022-09-11T11:23:16.951Z,13.92
2022-09-11T11:24:37.740Z,13.84
2022-09-11T11:25:59.970Z,13.78
2022-09-11T11:27:03.945Z,13.75
2022-09-11T11:28:20.145Z,13.82
2022-09-11T11:29:36.151Z,13.76
2022-09-11T11:30:40.007Z,13.69
2022-09-11T11:31:46.899Z,13.77
2022-09-11T11:33:03.052Z,13.78
2022-09-11T11:34:09.552Z,13.83
2022-09-11T11:35:19.254Z,13.83
2022-09-11T11:36:29.095Z,13.78
2022-09-11T11:37:33.028Z,13.79
2022-09-11T11:38:42.925Z,13.84
2022-09-11T11:39:49.707Z,13.86
2022-09-11T11:40:53.416Z,13.57
2022-09-11T11:42:09.316Z,13.46
2022-09-11T11:43:15.510Z,13.57
2022-09-11T11:44:19.419Z,13.62
2022-09-11T11:45:23.339Z,13.69
2022-09-11T11:46:27.177Z,13.75
2022-09-11T11:47:30.866Z,13.73
2022-09-11T11:48:40.584Z,13.75
2022-09-11T11:49:47.843Z,13.65
2022-09-11T11:50:51.955Z,13.78
2022-09-11T11:51:55.664Z,13.76
2022-09-11T11:53:05.788Z,13.77
2022-09-11T11:54:18.919Z,13.73
2022-09-11T11:55:22.639Z,13.76
2022-09-11T11:56:38.375Z,13.82
2022-09-11T11:57:42.373Z,13.87
2022-09-11T11:58:55.040Z,13.89
2022-09-11T11:59:58.844Z,13.89
2022-09-11T12:01:02.720Z,13.92
2022-09-11T12:02:10.433Z,13.95
2022-09-11T12:03:14.871Z,13.80
2022-09-11T12:04:21.404Z,13.83
2022-09-11T12:05:25.322Z,13.84
2022-09-11T12:06:27.309Z,13.83
2022-09-11T12:07:31.025Z,13.73
2022-09-11T12:08:34.900Z,13.74
2022-09-11T12:09:36.866Z,13.63
2022-09-11T12:10:40.717Z,13.68
2022-09-11T12:11:44.646Z,13.68
2022-09-11T12:12:48.565Z,13.70
2022-09-11T12:13:52.415Z,13.63
2022-09-11T12:14:55.775Z,13.68
2022-09-11T12:15:59.486Z,13.63
2022-09-11T12:17:19.422Z,13.62
2022-09-11T12:18:23.402Z,13.41
2022-09-11T12:19:25.231Z,13.45
2022-09-11T12:20:29.162Z,13.40
2022-09-11T12:21:33.013Z,13.56
2022-09-11T12:22:36.149Z,13.52
2022-09-11T12:23:46.307Z,13.53
2022-09-11T12:24:50.243Z,13.53
2022-09-11T12:25:53.923Z,13.51
2022-09-11T12:27:14.457Z,13.45
2022-09-11T12:28:23.687Z,13.42
2022-09-11T12:29:30.757Z,13.40
2022-09-11T12:30:34.484Z,13.32
2022-09-11T12:31:50.732Z,13.43
2022-09-11T12:32:54.647Z,13.50
2022-09-11T12:33:57.193Z,13.65
2022-09-11T12:35:01.264Z,13.68
2022-09-11T12:36:05.127Z,13.67
2022-09-11T12:37:08.913Z,13.68
2022-09-11T12:38:12.568Z,13.33
2022-09-11T12:39:16.282Z,13.30
2022-09-11T12:40:20.610Z,13.47
2022-09-11T12:41:27.372Z,13.57
2022-09-11T12:42:31.305Z,13.51
2022-09-11T12:43:37.975Z,13.47
2022-09-11T12:44:47.507Z,13.57
2022-09-11T12:45:49.622Z,13.53
2022-09-11T12:46:59.617Z,13.58
2022-09-11T12:48:03.402Z,13.66
2022-09-11T12:49:21.511Z,13.71
2022-09-11T12:50:12.664Z,13.71
2022-09-11T12:51:19.350Z,13.62
2022-09-11T12:52:26.334Z,13.69
2022-09-11T12:53:30.014Z,13.67
2022-09-11T12:54:39.116Z,13.57
2022-09-11T12:55:42.848Z,13.50
2022-09-11T12:56:46.088Z,13.47
2022-09-11T12:57:48.651Z,13.60
2022-09-11T12:58:52.360Z,13.57
2022-09-11T12:59:56.091Z,13.49
2022-09-11T13:01:03.008Z,13.46
2022-09-11T13:02:07.244Z,13.58
2022-09-11T13:03:20.706Z,13.63
2022-09-11T13:04:27.242Z,13.60
2022-09-11T13:05:30.762Z,13.56
2022-09-11T13:06:43.296Z,13.71
2022-09-11T13:07:47.165Z,13.70
2022-09-11T13:08:51.563Z,13.80
2022-09-11T13:09:53.799Z,13.83
2022-09-11T13:11:15.445Z,13.91
2022-09-11T13:12:19.409Z,14.00
2022-09-11T13:13:35.321Z,14.08
2022-09-11T13:14:39.317Z,14.08
2022-09-11T13:15:42.233Z,14.13
2022-09-11T13:16:44.396Z,14.18
2022-09-11T13:17:46.378Z,14.19
2022-09-11T13:18:49.199Z,14.26
2022-09-11T13:19:52.164Z,14.27
2022-09-11T13:20:58.769Z,14.24
2022-09-11T13:22:01.003Z,14.31
2022-09-11T13:23:14.397Z,14.29
2022-09-11T13:24:29.775Z,14.37
2022-09-11T13:25:31.891Z,14.32
2022-09-11T13:26:33.886Z,14.32
2022-09-11T13:27:36.137Z,14.11
2022-09-11T13:28:48.857Z,14.38
2022-09-11T13:29:51.776Z,14.42
2022-09-11T13:30:55.522Z,14.44
2022-09-11T13:31:59.353Z,14.48
2022-09-11T13:33:08.021Z,14.46
2022-09-11T13:34:14.821Z,14.44
2022-09-11T13:35:24.673Z,14.48
2022-09-11T13:36:27.626Z,14.39
2022-09-11T13:37:34.196Z,14.49
2022-09-11T13:38:37.252Z,14.51
2022-09-11T13:39:41.060Z,14.45
2022-09-11T13:40:54.394Z,14.48
2022-09-11T13:41:58.923Z,14.46
2022-09-11T13:43:02.039Z,14.45
2022-09-11T13:44:05.848Z,14.45
2022-09-11T13:45:09.759Z,14.46
2022-09-11T13:46:16.847Z,14.46
2022-09-11T13:47:19.733Z,14.49
2022-09-11T13:48:23.272Z,14.52
2022-09-11T13:49:27.036Z,14.52
2022-09-11T13:50:29.296Z,14.45